TimeEDT,TemperatureF,Dew PointF,Humidity,Sea Level PressureIn,VisibilityMPH,Wind Direction,Wind SpeedMPH,Gust SpeedMPH,PrecipitationIn,Events,Conditions,WindDirDegrees,DateUTC
12:15 AM,28.4,19.4,69,30.18,10.0,WNW,10.4,-,N/A,,Clear,290,2013-03-14 04:15:00
12:35 AM,28.4,19.4,69,30.19,10.0,WNW,9.2,16.1,N/A,,Clear,290,2013-03-14 04:35:00
12:55 AM,28.4,19.4,69,30.19,10.0,WNW,9.2,-,N/A,,Clear,290,2013-03-14 04:55:00
1:15 AM,28.4,17.6,64,30.19,10.0,WNW,10.4,-,N/A,,Clear,290,2013-03-14 05:15:00
1:35 AM,28.4,17.6,64,30.19,10.0,West,8.1,-,N/A,,Clear,280,2013-03-14 05:35:00
1:55 AM,28.4,17.6,64,30.20,10.0,West,9.2,-,N/A,,Clear,280,2013-03-14 05:55:00
2:15 AM,26.6,17.6,69,30.20,10.0,WNW,8.1,-,N/A,,Clear,290,2013-03-14 06:15:00
2:36 AM,26.6,17.6,69,30.20,10.0,WNW,8.1,-,N/A,,Clear,290,2013-03-14 06:36:00
2:56 AM,26.6,19.4,74,30.20,10.0,West,8.1,-,N/A,,Clear,280,2013-03-14 06:56:00
3:16 AM,26.6,19.4,74,30.20,10.0,West,6.9,-,N/A,,Clear,280,2013-03-14 07:16:00
3:36 AM,26.6,19.4,74,30.21,10.0,WNW,8.1,-,N/A,,Clear,290,2013-03-14 07:36:00
3:56 AM,26.6,19.4,74,30.21,10.0,WNW,9.2,-,N/A,,Clear,290,2013-03-14 07:56:00
4:16 AM,26.6,19.4,74,30.20,10.0,WNW,9.2,-,N/A,,Clear,290,2013-03-14 08:16:00
4:36 AM,26.6,19.4,74,30.20,10.0,West,8.1,-,N/A,,Clear,280,2013-03-14 08:36:00
4:56 AM,26.6,19.4,74,30.20,10.0,WNW,8.1,-,N/A,,Clear,290,2013-03-14 08:56:00
5:11 AM,26.6,19.4,74,30.19,10.0,West,5.8,-,N/A,,Clear,270,2013-03-14 09:11:00
5:31 AM,26.6,19.4,74,30.20,10.0,West,5.8,-,N/A,,Clear,280,2013-03-14 09:31:00
5:51 AM,26.6,19.4,74,30.20,10.0,WNW,5.8,-,N/A,,Clear,290,2013-03-14 09:51:00
6:12 AM,26.6,19.4,74,30.21,10.0,West,3.5,-,N/A,,Clear,280,2013-03-14 10:12:00
6:32 AM,26.6,19.4,74,30.21,10.0,WNW,5.8,-,N/A,,Clear,290,2013-03-14 10:32:00
6:52 AM,24.8,19.4,80,30.22,10.0,West,4.6,-,N/A,,Clear,280,2013-03-14 10:52:00
7:12 AM,24.8,19.4,80,30.22,10.0,WNW,4.6,-,N/A,,Clear,290,2013-03-14 11:12:00
7:32 AM,24.8,19.4,80,30.22,10.0,West,4.6,-,N/A,,Clear,280,2013-03-14 11:32:00
7:52 AM,24.8,19.4,80,30.23,10.0,West,4.6,-,N/A,,Clear,280,2013-03-14 11:52:00
8:12 AM,24.8,19.4,80,30.23,10.0,West,4.6,-,N/A,,Clear,280,2013-03-14 12:12:00
8:32 AM,26.6,21.2,80,30.23,10.0,West,5.8,-,N/A,,Clear,270,2013-03-14 12:32:00
8:52 AM,28.4,21.2,74,30.23,10.0,West,5.8,-,N/A,,Clear,280,2013-03-14 12:52:00
9:13 AM,28.4,19.4,69,30.24,10.0,WNW,9.2,-,N/A,,Clear,290,2013-03-14 13:13:00
9:33 AM,28.4,19.4,69,30.24,10.0,WNW,6.9,-,N/A,,Clear,290,2013-03-14 13:33:00
10:13 AM,30.2,19.4,64,30.25,10.0,WNW,8.1,-,N/A,,Clear,290,2013-03-14 14:13:00
10:33 AM,32.0,19.4,60,30.25,10.0,NW,8.1,-,N/A,,Clear,310,2013-03-14 14:33:00
10:53 AM,33.8,19.4,56,30.25,10.0,WNW,11.5,-,N/A,,Clear,290,2013-03-14 14:53:00
11:13 AM,33.8,19.4,56,30.24,10.0,WNW,9.2,-,N/A,,Clear,300,2013-03-14 15:13:00
11:33 AM,33.8,19.4,56,30.24,10.0,WNW,13.8,-,N/A,,Clear,290,2013-03-14 15:33:00
11:53 AM,35.6,19.4,52,30.23,10.0,WNW,10.4,17.3,N/A,,Clear,290,2013-03-14 15:53:00
12:14 PM,35.6,19.4,52,30.23,10.0,WNW,12.7,19.6,N/A,,Clear,290,2013-03-14 16:14:00
12:34 PM,35.6,21.2,56,30.22,10.0,WNW,12.7,18.4,N/A,,Clear,290,2013-03-14 16:34:00
12:54 PM,35.6,21.2,56,30.22,10.0,West,9.2,17.3,N/A,,Clear,280,2013-03-14 16:54:00
1:34 PM,37.4,21.2,52,30.21,10.0,West,9.2,16.1,N/A,,Clear,280,2013-03-14 17:34:00
1:54 PM,37.4,21.2,52,30.20,10.0,WNW,12.7,18.4,N/A,,Clear,290,2013-03-14 17:54:00
2:14 PM,37.4,19.4,48,30.19,10.0,West,10.4,18.4,N/A,,Clear,280,2013-03-14 18:14:00
2:34 PM,39.2,21.2,49,30.18,10.0,West,11.5,-,N/A,,Scattered Clouds,270,2013-03-14 18:34:00
2:54 PM,39.2,19.4,45,30.17,10.0,WNW,13.8,-,N/A,,Scattered Clouds,300,2013-03-14 18:54:00
3:14 PM,39.2,19.4,45,30.16,10.0,West,12.7,18.4,N/A,,Clear,280,2013-03-14 19:14:00
3:35 PM,41.0,21.2,45,30.16,10.0,West,12.7,-,N/A,,Clear,260,2013-03-14 19:35:00
3:55 PM,41.0,21.2,45,30.15,10.0,WNW,11.5,17.3,N/A,,Clear,290,2013-03-14 19:55:00
4:15 PM,42.8,21.2,42,30.15,10.0,West,15.0,-,N/A,,Scattered Clouds,280,2013-03-14 20:15:00
4:35 PM,42.8,19.4,39,30.15,10.0,West,15.0,19.6,N/A,,Clear,280,2013-03-14 20:35:00
4:55 PM,42.8,21.2,42,30.15,10.0,NW,10.4,-,N/A,,Clear,310,2013-03-14 20:55:00
5:15 PM,42.8,21.2,42,30.14,10.0,West,11.5,-,N/A,,Clear,270,2013-03-14 21:15:00
5:35 PM,42.8,21.2,42,30.14,10.0,West,11.5,-,N/A,,Clear,260,2013-03-14 21:35:00
5:55 PM,42.8,21.2,42,30.14,10.0,West,12.7,16.1,N/A,,Clear,270,2013-03-14 21:55:00
6:15 PM,42.8,21.2,42,30.13,10.0,West,13.8,-,N/A,,Clear,270,2013-03-14 22:15:00
6:36 PM,41.0,23.0,49,30.13,10.0,WSW,8.1,-,N/A,,Clear,250,2013-03-14 22:36:00
6:56 PM,39.2,23.0,52,30.12,10.0,West,9.2,-,N/A,,Clear,260,2013-03-14 22:56:00
7:16 PM,39.2,23.0,52,30.12,10.0,West,8.1,-,N/A,,Clear,260,2013-03-14 23:16:00
7:36 PM,37.4,24.8,60,30.12,10.0,West,6.9,-,N/A,,Clear,260,2013-03-14 23:36:00
7:56 PM,37.4,24.8,60,30.12,10.0,West,5.8,-,N/A,,Clear,260,2013-03-14 23:56:00
8:16 PM,35.6,24.8,65,30.12,10.0,WSW,5.8,-,N/A,,Clear,250,2013-03-15 00:16:00
8:36 PM,35.6,24.8,65,30.12,10.0,West,5.8,-,N/A,,Clear,260,2013-03-15 00:36:00
8:56 PM,33.8,24.8,70,30.12,10.0,WSW,5.8,-,N/A,,Clear,240,2013-03-15 00:56:00
9:11 PM,35.6,24.8,65,30.10,10.0,SSW,4.6,-,N/A,,Clear,210,2013-03-15 01:11:00
9:31 PM,33.8,24.8,70,30.10,10.0,SW,5.8,-,N/A,,Clear,220,2013-03-15 01:31:00
9:51 PM,33.8,26.6,75,30.10,10.0,WSW,8.1,-,N/A,,Clear,240,2013-03-15 01:51:00
10:12 PM,33.8,26.6,75,30.10,10.0,WSW,6.9,-,N/A,,Clear,240,2013-03-15 02:12:00
10:32 PM,33.8,26.6,75,30.09,10.0,WSW,5.8,-,N/A,,Clear,240,2013-03-15 02:32:00
10:52 PM,32.0,24.8,75,30.09,10.0,SW,4.6,-,N/A,,Clear,230,2013-03-15 02:52:00
11:12 PM,32.0,24.8,75,30.09,10.0,WSW,5.8,-,N/A,,Clear,240,2013-03-15 03:12:00
11:32 PM,32.0,24.8,75,30.08,10.0,SW,5.8,-,N/A,,Clear,230,2013-03-15 03:32:00
11:52 PM,32.0,24.8,75,30.07,10.0,SW,4.6,-,N/A,,Clear,230,2013-03-15 03:52:00